createdAt,value
2019-05-02T00:09:33.475Z,44.87
2019-05-02T00:19:37.629Z,42.40
2019-05-02T00:29:42.215Z,44.77
2019-05-02T00:39:49.185Z,37.93
2019-05-02T00:49:53.029Z,39.23
2019-05-02T00:59:57.543Z,37.07
2019-05-02T01:10:02.295Z,34.07
2019-05-02T01:20:08.351Z,34.53
2019-05-02T01:30:31.270Z,28.92
2019-05-02T01:40:35.886Z,28.87
2019-05-02T01:50:40.332Z,27.10
2019-05-02T02:00:45.972Z,29.57
2019-05-02T02:10:56.448Z,31.83
2019-05-02T02:21:02.683Z,29.13
2019-05-02T02:31:08.210Z,26.50
2019-05-02T02:41:14.790Z,29.37
2019-05-02T02:51:23.586Z,25.17
2019-05-02T03:01:28.677Z,27.60
2019-05-02T03:11:34.251Z,20.13
2019-05-02T03:21:40.595Z,24.17
2019-05-02T03:31:45.483Z,20.57
2019-05-02T03:41:55.435Z,21.90
2019-05-02T03:52:03.128Z,24.33
2019-05-02T04:02:03.190Z,27.77
2019-05-02T04:12:18.521Z,27.47
2019-05-02T04:22:15.575Z,27.47
2019-05-02T04:32:20.207Z,28.83
2019-05-02T04:42:24.709Z,24.85
2019-05-02T04:52:29.263Z,24.87
2019-05-02T05:02:36.525Z,29.30
2019-05-02T05:12:41.814Z,27.07
2019-05-02T05:22:47.908Z,19.37
2019-05-02T05:32:52.523Z,19.87
2019-05-02T05:42:57.432Z,28.70
2019-05-02T05:53:01.897Z,23.17
2019-05-02T06:03:13.024Z,29.53
2019-05-02T06:13:12.933Z,26.30
2019-05-02T06:23:17.483Z,26.20
2019-05-02T06:33:25.917Z,24.77
2019-05-02T06:43:29.155Z,31.17
2019-05-02T06:53:35.182Z,34.47
2019-05-02T07:03:41.245Z,29.50
2019-05-02T07:13:47.065Z,33.73
2019-05-02T07:23:53.759Z,29.33
2019-05-02T07:33:57.790Z,25.33
2019-05-02T07:44:04.394Z,32.27
2019-05-02T07:54:08.517Z,31.73
2019-05-02T08:04:13.082Z,24.83
2019-05-02T08:14:18.643Z,29.03
2019-05-02T08:24:23.128Z,24.83
2019-05-02T08:34:33.578Z,24.63
2019-05-02T08:44:50.327Z,15.77
2019-05-02T08:54:44.506Z,28.17
2019-05-02T09:04:58.229Z,17.43
2019-05-02T09:14:55.659Z,19.73
2019-05-02T09:25:02.130Z,22.47
2019-05-02T09:35:07.031Z,25.03
2019-05-02T09:45:16.689Z,19.47
2019-05-02T09:55:22.624Z,22.57
2019-05-02T10:05:27.609Z,23.13
2019-05-02T10:15:32.802Z,20.67
2019-05-02T10:25:38.842Z,17.33
2019-05-02T10:35:45.608Z,19.03
2019-05-02T10:45:56.603Z,22.37
2019-05-02T10:56:02.668Z,22.00
2019-05-02T11:06:08.913Z,14.17
2019-05-02T11:16:24.085Z,14.53
2019-05-02T11:26:29.073Z,13.87
2019-05-02T11:36:33.682Z,7.13
2019-05-02T11:46:42.892Z,9.37
2019-05-02T11:56:49.226Z,6.97
2019-05-02T12:07:00.972Z,8.03
2019-05-02T12:16:59.299Z,10.00
2019-05-02T12:27:05.007Z,11.53
2019-05-02T12:37:09.624Z,8.70
2019-05-02T12:47:15.249Z,8.93
2019-05-02T12:57:21.895Z,14.50
2019-05-02T13:07:26.089Z,7.63
2019-05-02T13:17:35.646Z,10.28
2019-05-02T13:27:44.400Z,8.03
2019-05-02T13:37:45.834Z,9.50
2019-05-02T13:47:51.959Z,9.33
2019-05-02T13:57:56.610Z,12.07
2019-05-02T14:08:15.926Z,9.05
2019-05-02T14:18:21.952Z,9.67
2019-05-02T14:28:26.997Z,10.75
2019-05-02T14:38:33.095Z,8.93
2019-05-02T14:48:45.078Z,11.20
2019-05-02T14:58:47.691Z,13.15
2019-05-02T15:08:52.660Z,11.33
2019-05-02T15:18:57.261Z,10.67
2019-05-02T15:29:01.956Z,11.07
2019-05-02T15:49:16.465Z,10.80
2019-05-02T15:59:37.482Z,8.97
2019-05-02T16:09:39.161Z,12.47
2019-05-02T16:19:45.268Z,12.80
2019-05-02T16:29:49.768Z,8.67
2019-05-02T16:39:54.414Z,9.57
2019-05-02T16:49:58.882Z,9.47
2019-05-02T17:00:06.376Z,8.73
2019-05-02T17:10:19.848Z,9.00
2019-05-02T17:20:24.407Z,9.67
2019-05-02T17:30:33.346Z,9.00
2019-05-02T17:40:36.200Z,10.20
2019-05-02T17:51:02.182Z,10.88
2019-05-02T18:01:08.847Z,14.57
2019-05-02T18:11:13.432Z,12.67
2019-05-02T18:21:24.719Z,14.83
2019-05-02T18:31:25.339Z,18.20
2019-05-02T18:41:31.767Z,17.70
2019-05-02T18:51:36.316Z,20.83
2019-05-02T19:01:42.664Z,18.25
2019-05-02T19:11:47.337Z,20.40
2019-05-02T19:21:51.807Z,15.67
2019-05-02T19:31:56.912Z,13.20
2019-05-02T19:42:01.877Z,17.70
2019-05-02T19:52:06.772Z,17.53
2019-05-02T20:02:11.999Z,24.23
2019-05-02T20:12:17.315Z,17.77
2019-05-02T20:22:23.422Z,18.07
2019-05-02T20:32:27.999Z,16.17
2019-05-02T20:42:32.851Z,25.30
2019-05-02T20:52:37.354Z,23.20
2019-05-02T21:02:42.467Z,19.10
2019-05-02T21:12:47.120Z,25.53
2019-05-02T21:22:53.000Z,15.23
2019-05-02T21:32:57.815Z,19.43
2019-05-02T21:43:02.548Z,24.10
2019-05-02T21:53:14.399Z,28.13
2019-05-02T22:03:19.411Z,28.27
2019-05-02T22:13:23.987Z,28.57
2019-05-02T22:23:33.668Z,37.50
2019-05-02T22:33:35.770Z,44.80
2019-05-02T22:43:42.162Z,39.20
2019-05-02T22:53:46.702Z,34.80
2019-05-02T23:03:52.477Z,34.47
2019-05-02T23:13:57.079Z,38.10
2019-05-02T23:24:09.084Z,35.60
2019-05-02T23:34:13.691Z,31.97
2019-05-02T23:44:18.129Z,29.77
2019-05-02T23:54:22.718Z,35.13
